Time;durP1;ratioP1;P1;durP2;ratioP2;P2;SDS_P1;SDS_P2;PMS_P1;PMS_P2;Temp;Humidity;BMP_temperature;BMP_pressure;BME280_temperature;BME280_humidity;BME280_pressure;Samples;Min_cycle;Max_cycle;Signal;HPM_P1;HPM_P2
2020/12/26 00:00:56;;;;;;;7.30;4.75;;;22.90;32.10;;;;;;6184272;28;80609;-43
2020/12/26 00:03:57;;;;;;;9.52;4.75;;;22.90;32.20;;;;;;6181881;28;80789;-44
2020/12/26 00:06:58;;;;;;;8.82;5.07;;;22.90;32.30;;;;;;6178966;28;80498;-43
2020/12/26 00:09:58;;;;;;;8.98;4.80;;;22.90;32.20;;;;;;6180598;28;81081;-43
2020/12/26 00:12:58;;;;;;;8.48;4.97;;;22.90;32.30;;;;;;6178681;28;81426;-44
2020/12/26 00:15:59;;;;;;;9.82;5.18;;;22.90;32.50;;;;;;6186539;28;83680;-43
2020/12/26 00:19:00;;;;;;;7.72;4.60;;;22.80;32.20;;;;;;6185531;28;81134;-43
2020/12/26 00:22:00;;;;;;;8.38;4.43;;;22.90;32.20;;;;;;6181916;28;80484;-43
2020/12/26 00:25:01;;;;;;;8.55;5.03;;;22.80;32.30;;;;;;6178398;28;80578;-44
2020/12/26 00:28:01;;;;;;;8.18;4.68;;;22.80;32.20;;;;;;6176174;27;80837;-43
2020/12/26 00:31:02;;;;;;;8.40;4.57;;;22.80;32.20;;;;;;6183111;28;80619;-43
2020/12/26 00:34:02;;;;;;;7.70;4.88;;;22.80;32.10;;;;;;6149590;28;81426;-44
2020/12/26 00:37:03;;;;;;;7.90;4.32;;;22.80;32.20;;;;;;6177388;28;80627;-43
2020/12/26 00:40:03;;;;;;;8.82;4.85;;;22.80;32.10;;;;;;6177806;28;80618;-43
2020/12/26 00:43:04;;;;;;;9.00;4.90;;;22.80;32.30;;;;;;6182972;27;80793;-43
2020/12/26 00:46:04;;;;;;;8.50;4.22;;;22.80;32.30;;;;;;6189013;28;80730;-44
2020/12/26 00:49:05;;;;;;;8.32;4.65;;;22.80;32.40;;;;;;6179445;27;80534;-43
2020/12/26 00:52:06;;;;;;;8.98;4.80;;;22.70;32.30;;;;;;6178228;28;84522;-43
2020/12/26 00:55:06;;;;;;;8.75;4.72;;;22.70;32.50;;;;;;6177875;27;83365;-43
2020/12/26 00:58:07;;;;;;;9.35;4.93;;;22.70;32.50;;;;;;6178530;28;81576;-43
2020/12/26 01:01:09;;;;;;;8.75;5.22;;;22.70;32.50;;;;;;6177873;28;81620;-43
2020/12/26 01:04:35;;;;;;;;;;;22.70;32.40;;;;;;6179230;28;81217;-43
2020/12/26 01:07:36;;;;;;;8.18;4.55;;;22.70;32.50;;;;;;6187143;28;80247;-43
2020/12/26 01:10:36;;;;;;;8.15;4.82;;;22.70;32.50;;;;;;6180769;27;80174;-43
2020/12/26 01:13:37;;;;;;;9.02;5.13;;;22.70;32.50;;;;;;6179443;28;80896;-44
2020/12/26 01:16:37;;;;;;;8.82;5.05;;;22.70;32.50;;;;;;6179293;28;80745;-43
2020/12/26 01:19:38;;;;;;;9.43;5.18;;;22.70;32.50;;;;;;6190929;28;80609;-43
2020/12/26 01:22:38;;;;;;;9.07;4.70;;;22.70;32.50;;;;;;6174866;27;80854;-43
2020/12/26 01:25:39;;;;;;;9.20;4.88;;;22.70;32.50;;;;;;6184040;28;80651;-45
2020/12/26 01:28:39;;;;;;;9.82;4.82;;;22.70;32.50;;;;;;6178170;28;81348;-44
2020/12/26 01:31:40;;;;;;;9.30;4.75;;;22.70;32.70;;;;;;6179418;28;80718;-43
2020/12/26 01:34:41;;;;;;;7.93;4.57;;;22.70;32.60;;;;;;6178347;28;80767;-44
2020/12/26 01:37:41;;;;;;;8.90;4.85;;;22.70;32.50;;;;;;6184228;28;81937;-44
2020/12/26 01:40:42;;;;;;;8.65;5.20;;;22.70;32.60;;;;;;6179433;27;86849;-44
2020/12/26 01:43:42;;;;;;;8.18;4.90;;;22.70;32.50;;;;;;6178137;28;81544;-44
2020/12/26 01:46:43;;;;;;;7.55;4.50;;;22.60;32.50;;;;;;6177497;28;81145;-43
2020/12/26 01:49:43;;;;;;;7.97;4.63;;;22.60;32.50;;;;;;6182936;28;81005;-44
2020/12/26 01:52:44;;;;;;;9.55;5.28;;;22.60;32.80;;;;;;6183554;28;80382;-43
2020/12/26 01:55:44;;;;;;;9.23;4.80;;;22.60;32.70;;;;;;6180587;28;83608;-43
2020/12/26 01:58:45;;;;;;;9.10;5.25;;;22.60;32.60;;;;;;6182658;27;81984;-43
2020/12/26 02:01:45;;;;;;;6.63;4.47;;;22.60;32.50;;;;;;6181829;28;80893;-43
2020/12/26 02:04:46;;;;;;;8.68;4.78;;;22.60;32.50;;;;;;6182892;27;81825;-45
2020/12/26 02:07:46;;;;;;;7.97;4.40;;;22.60;32.70;;;;;;6183199;28;80623;-44
2020/12/26 02:10:47;;;;;;;10.35;5.00;;;22.60;32.60;;;;;;6179126;28;81555;-43
2020/12/26 02:13:47;;;;;;;8.55;4.90;;;22.60;32.60;;;;;;6181388;27;81105;-44
2020/12/26 02:16:48;;;;;;;8.10;4.25;;;22.60;32.60;;;;;;6181043;28;81665;-44
2020/12/26 02:19:48;;;;;;;7.90;4.38;;;22.60;32.50;;;;;;6188015;27;80444;-43
2020/12/26 02:22:49;;;;;;;6.40;4.10;;;22.60;32.70;;;;;;6190670;28;82599;-44
2020/12/26 02:25:49;;;;;;;7.47;4.50;;;22.60;32.90;;;;;;6173846;28;80779;-43
2020/12/26 02:28:50;;;;;;;6.85;4.20;;;22.50;32.80;;;;;;6191115;28;81294;-43
2020/12/26 02:31:50;;;;;;;9.32;4.93;;;22.60;32.80;;;;;;6181097;27;80987;-44
2020/12/26 02:34:51;;;;;;;7.15;4.57;;;22.50;32.70;;;;;;6182743;28;83174;-43
2020/12/26 02:37:51;;;;;;;7.35;4.40;;;22.50;32.80;;;;;;6186768;28;80798;-44
2020/12/26 02:40:52;;;;;;;7.10;4.53;;;22.50;32.80;;;;;;6182396;27;82727;-44
2020/12/26 02:43:53;;;;;;;6.90;4.07;;;22.60;32.90;;;;;;6181870;28;80976;-44
2020/12/26 02:46:53;;;;;;;8.70;4.45;;;22.50;33.00;;;;;;6181728;27;80457;-43
2020/12/26 02:49:54;;;;;;;6.90;4.25;;;22.50;33.10;;;;;;6181722;28;80420;-43
2020/12/26 02:52:54;;;;;;;8.93;4.55;;;22.50;33.10;;;;;;6180574;27;81607;-43
2020/12/26 02:55:55;;;;;;;9.30;4.03;;;22.50;33.10;;;;;;6185500;28;80540;-43
2020/12/26 02:58:55;;;;;;;6.82;3.92;;;22.50;33.20;;;;;;6178890;28;80618;-44
2020/12/26 03:01:56;;;;;;;7.68;3.97;;;22.50;33.10;;;;;;6187121;28;80605;-43
2020/12/26 03:04:56;;;;;;;7.28;4.00;;;22.50;33.30;;;;;;6180882;28;81591;-43
2020/12/26 03:07:57;;;;;;;7.82;4.15;;;22.50;33.30;;;;;;6187798;28;80283;-43
2020/12/26 03:10:57;;;;;;;9.50;4.47;;;22.50;33.30;;;;;;6171084;28;83410;-43
2020/12/26 03:13:58;;;;;;;7.90;4.40;;;22.50;33.20;;;;;;6179276;28;80618;-43
2020/12/26 03:16:58;;;;;;;8.15;4.30;;;22.50;33.20;;;;;;6179765;27;81056;-43
2020/12/26 03:19:59;;;;;;;6.93;4.13;;;22.50;33.10;;;;;;6175748;28;81073;-43
2020/12/26 03:22:59;;;;;;;6.38;3.60;;;22.50;33.20;;;;;;6181475;27;81019;-43
2020/12/26 03:26:00;;;;;;;7.15;4.30;;;22.50;33.20;;;;;;6179954;28;80806;-44
2020/12/26 03:29:00;;;;;;;5.82;3.85;;;22.50;33.20;;;;;;6187765;28;81955;-44
2020/12/26 03:32:01;;;;;;;7.75;3.75;;;22.50;33.20;;;;;;6192593;28;80877;-44
2020/12/26 03:35:01;;;;;;;5.38;3.20;;;22.50;33.10;;;;;;6177967;28;81396;-44
2020/12/26 03:38:02;;;;;;;7.00;3.63;;;22.50;33.20;;;;;;6184152;28;80472;-43
2020/12/26 03:41:02;;;;;;;9.23;3.75;;;22.50;33.00;;;;;;6175026;28;80818;-44
2020/12/26 03:44:04;;;;;;;6.95;3.67;;;22.50;33.20;;;;;;6189559;28;81266;-43
2020/12/26 03:47:04;;;;;;;6.88;3.72;;;22.50;33.70;;;;;;6182960;27;81042;-43
2020/12/26 03:50:05;;;;;;;6.05;3.72;;;22.50;33.00;;;;;;6182979;28;81204;-43
2020/12/26 03:53:05;;;;;;;7.35;3.63;;;22.50;33.10;;;;;;6182866;28;82011;-44
2020/12/26 03:56:06;;;;;;;6.68;3.63;;;22.40;33.10;;;;;;6177941;28;80632;-44
2020/12/26 03:59:06;;;;;;;8.00;4.38;;;22.40;33.20;;;;;;6182032;27;81567;-43
2020/12/26 04:02:07;;;;;;;6.78;3.95;;;22.40;33.10;;;;;;6188665;28;81499;-43
2020/12/26 04:05:07;;;;;;;8.80;4.30;;;22.40;33.10;;;;;;6161784;27;82465;-44
2020/12/26 04:08:08;;;;;;;6.65;3.75;;;22.40;33.10;;;;;;6190135;28;85594;-44
2020/12/26 04:11:08;;;;;;;8.32;3.55;;;22.40;33.10;;;;;;6178367;28;80451;-44
2020/12/26 04:14:09;;;;;;;6.57;3.38;;;22.40;33.10;;;;;;6190952;28;82907;-43
2020/12/26 04:17:09;;;;;;;8.60;4.05;;;22.40;32.90;;;;;;6187652;28;80973;-43
2020/12/26 04:20:10;;;;;;;6.20;3.97;;;22.40;33.00;;;;;;6172787;28;80522;-43
2020/12/26 04:23:10;;;;;;;7.10;3.67;;;22.40;32.90;;;;;;6168087;27;80600;-43
2020/12/26 04:26:11;;;;;;;6.68;3.65;;;22.40;32.90;;;;;;6178662;28;80610;-43
2020/12/26 04:29:11;;;;;;;7.47;3.75;;;22.40;32.90;;;;;;6161008;27;81528;-43
2020/12/26 04:32:12;;;;;;;6.82;3.70;;;22.40;32.80;;;;;;6160144;28;81813;-44
2020/12/26 04:35:13;;;;;;;7.40;3.55;;;22.40;32.90;;;;;;6155498;28;83155;-44
2020/12/26 04:38:13;;;;;;;6.88;3.40;;;22.40;33.10;;;;;;6174968;28;80430;-43
2020/12/26 04:41:14;;;;;;;5.90;3.20;;;22.40;32.80;;;;;;6190632;27;80694;-44
2020/12/26 04:44:14;;;;;;;5.68;3.15;;;22.40;32.70;;;;;;6186126;28;80453;-43
2020/12/26 04:47:15;;;;;;;6.05;3.15;;;22.40;32.90;;;;;;6178166;27;83691;-43
2020/12/26 04:50:15;;;;;;;5.53;3.17;;;22.30;32.70;;;;;;6170738;28;80619;-44
2020/12/26 04:53:16;;;;;;;5.70;3.22;;;22.40;32.70;;;;;;6171565;28;80864;-43
2020/12/26 04:56:17;;;;;;;5.47;3.15;;;22.30;32.70;;;;;;6175895;28;81443;-43
2020/12/26 04:59:17;;;;;;;8.20;4.07;;;22.40;32.60;;;;;;6190177;27;81015;-43
2020/12/26 05:02:18;;;;;;;7.32;3.55;;;22.40;32.70;;;;;;6189212;28;80368;-44
2020/12/26 05:05:18;;;;;;;6.63;3.85;;;22.40;32.60;;;;;;6184667;27;81665;-43
2020/12/26 05:08:19;;;;;;;9.45;4.03;;;22.30;32.50;;;;;;6169381;28;81148;-44
2020/12/26 05:11:19;;;;;;;7.10;3.30;;;22.40;32.30;;;;;;6168296;27;80533;-43
2020/12/26 05:14:20;;;;;;;5.70;3.15;;;22.40;32.50;;;;;;6168904;28;81549;-44
2020/12/26 05:17:20;;;;;;;5.20;3.00;;;22.40;32.40;;;;;;6170054;28;80547;-45
2020/12/26 05:20:21;;;;;;;5.78;3.05;;;22.50;31.80;;;;;;6166996;28;81504;-44
2020/12/26 05:23:21;;;;;;;6.57;3.55;;;22.50;31.40;;;;;;6183495;28;80526;-43
2020/12/26 05:26:22;;;;;;;5.32;3.00;;;22.60;31.50;;;;;;6182571;27;80393;-44
2020/12/26 05:29:23;;;;;;;5.82;3.60;;;22.50;31.20;;;;;;6176612;28;80624;-44
2020/12/26 05:32:23;;;;;;;6.07;3.53;;;22.60;31.10;;;;;;6177648;27;80423;-43
2020/12/26 05:35:24;;;;;;;8.75;4.20;;;22.60;31.30;;;;;;6180141;28;80374;-43
2020/12/26 05:38:24;;;;;;;5.78;3.33;;;22.70;31.50;;;;;;6190880;28;81317;-43
2020/12/26 05:41:25;;;;;;;7.15;3.67;;;22.70;31.40;;;;;;6186179;28;81453;-43
2020/12/26 05:44:26;;;;;;;5.57;3.33;;;22.70;31.30;;;;;;6192151;28;80401;-44
2020/12/26 05:47:26;;;;;;;5.75;3.55;;;22.80;31.40;;;;;;6161511;28;80626;-43
2020/12/26 05:50:28;;;;;;;6.28;3.38;;;22.80;31.30;;;;;;6180927;28;82204;-44
2020/12/26 05:53:29;;;;;;;5.07;3.13;;;22.80;31.20;;;;;;6167340;28;82086;-43
2020/12/26 05:56:29;;;;;;;5.15;3.38;;;22.80;31.20;;;;;;6184133;28;80855;-43
2020/12/26 05:59:30;;;;;;;6.03;3.13;;;22.80;31.10;;;;;;6164121;28;80425;-43
2020/12/26 06:02:30;;;;;;;4.93;2.95;;;22.80;31.00;;;;;;6188435;28;81381;-43
2020/12/26 06:05:31;;;;;;;6.63;3.63;;;22.90;31.00;;;;;;6159781;27;82577;-43
2020/12/26 06:08:31;;;;;;;5.28;3.03;;;22.90;31.00;;;;;;6155398;28;80465;-43
2020/12/26 06:11:32;;;;;;;7.57;3.10;;;22.90;31.00;;;;;;6154837;28;82034;-43
2020/12/26 06:14:32;;;;;;;6.45;3.05;;;22.90;31.50;;;;;;6154844;28;80898;-43
2020/12/26 06:17:33;;;;;;;5.88;3.08;;;23.00;32.40;;;;;;6177603;28;80666;-43
2020/12/26 06:20:33;;;;;;;4.68;3.13;;;23.00;31.60;;;;;;6180413;28;80768;-43
2020/12/26 06:23:34;;;;;;;18.52;3.33;;;23.00;31.90;;;;;;6170192;28;80862;-43
2020/12/26 06:26:34;;;;;;;7.15;3.45;;;23.10;32.40;;;;;;6181975;28;81404;-43
2020/12/26 06:29:35;;;;;;;5.90;3.38;;;23.10;32.70;;;;;;6168484;27;80249;-43
2020/12/26 06:32:35;;;;;;;5.47;3.05;;;23.10;32.70;;;;;;6179572;28;81482;-43
2020/12/26 06:35:36;;;;;;;5.68;3.00;;;23.10;33.00;;;;;;6179827;28;80735;-43
2020/12/26 06:38:36;;;;;;;11.13;3.05;;;23.20;33.10;;;;;;6175752;28;81524;-43
2020/12/26 06:41:37;;;;;;;7.68;3.35;;;23.10;33.10;;;;;;6178466;28;81703;-44
2020/12/26 06:44:37;;;;;;;5.57;3.30;;;23.20;33.00;;;;;;6178879;28;80675;-43
2020/12/26 06:47:38;;;;;;;5.13;3.17;;;23.10;33.00;;;;;;6179252;28;83236;-43
2020/12/26 06:50:38;;;;;;;7.22;3.25;;;23.20;33.10;;;;;;6167293;28;84056;-43
2020/12/26 06:53:39;;;;;;;3.72;2.67;;;23.20;32.80;;;;;;6173137;28;81703;-43
2020/12/26 06:56:40;;;;;;;7.85;2.90;;;23.20;32.90;;;;;;6167633;28;80903;-43
2020/12/26 06:59:40;;;;;;;6.13;3.17;;;23.30;33.00;;;;;;6166867;28;80580;-43
2020/12/26 07:02:41;;;;;;;5.47;2.90;;;23.30;33.20;;;;;;6175709;28;83107;-43
2020/12/26 07:05:41;;;;;;;6.25;2.75;;;23.30;33.10;;;;;;6179663;28;81092;-43
2020/12/26 07:08:42;;;;;;;5.93;3.00;;;23.40;33.30;;;;;;6168025;27;80578;-43
2020/12/26 07:11:42;;;;;;;6.45;3.35;;;23.40;33.00;;;;;;6178056;28;80862;-44
2020/12/26 07:14:43;;;;;;;6.20;3.63;;;23.40;33.00;;;;;;6149493;27;80668;-43
2020/12/26 07:17:43;;;;;;;8.77;3.97;;;23.40;33.20;;;;;;6178111;28;81012;-44
2020/12/26 07:20:44;;;;;;;11.20;5.57;;;23.50;33.30;;;;;;6180236;28;81398;-43
2020/12/26 07:23:44;;;;;;;17.65;5.90;;;23.50;33.80;;;;;;6179594;28;80605;-43
2020/12/26 07:26:45;;;;;;;11.90;5.60;;;23.50;33.80;;;;;;6178505;28;81492;-43
2020/12/26 07:29:45;;;;;;;12.50;5.85;;;23.50;34.00;;;;;;6178383;28;80829;-43
2020/12/26 07:32:47;;;;;;;12.23;5.35;;;23.60;34.50;;;;;;6178560;28;81232;-43
2020/12/26 07:35:47;;;;;;;10.90;6.10;;;23.60;34.80;;;;;;6179329;28;80227;-43
2020/12/26 07:38:48;;;;;;;13.75;6.80;;;23.60;35.00;;;;;;6175516;27;81419;-44
2020/12/26 07:41:48;;;;;;;15.23;7.22;;;23.60;35.20;;;;;;6175695;28;80651;-44
2020/12/26 07:44:53;;;;;;;17.08;6.28;;;23.70;35.40;;;;;;6165347;28;83395;-43
2020/12/26 07:47:54;;;;;;;13.05;6.18;;;23.60;35.60;;;;;;6170923;28;87910;-49
2020/12/26 07:50:54;;;;;;;155.05;53.38;;;23.60;35.40;;;;;;6164085;27;82115;-48
2020/12/26 07:53:55;;;;;;;260.98;93.85;;;23.60;35.50;;;;;;6174194;28;85841;-44
2020/12/26 07:56:55;;;;;;;257.48;90.47;;;23.60;35.80;;;;;;6174746;27;84925;-43
2020/12/26 07:59:56;;;;;;;206.45;72.85;;;23.60;36.00;;;;;;6165957;28;83725;-44
2020/12/26 08:02:56;;;;;;;187.35;65.20;;;23.60;36.00;;;;;;6139404;28;83732;-43
2020/12/26 08:05:57;;;;;;;170.70;55.03;;;23.50;36.30;;;;;;6163066;28;83557;-44
2020/12/26 08:08:57;;;;;;;135.98;48.58;;;23.50;36.30;;;;;;6170570;28;84171;-43
2020/12/26 08:11:58;;;;;;;123.38;46.60;;;23.50;35.90;;;;;;6150847;28;83143;-43
2020/12/26 08:14:58;;;;;;;121.93;41.90;;;23.40;36.50;;;;;;6149602;28;82947;-43
2020/12/26 08:17:59;;;;;;;115.35;39.35;;;23.40;36.10;;;;;;6147078;28;82923;-43
2020/12/26 08:21:00;;;;;;;93.45;35.10;;;23.50;36.00;;;;;;6173465;28;83399;-43
2020/12/26 08:24:00;;;;;;;101.05;33.67;;;23.40;36.10;;;;;;6174473;28;84272;-43
2020/12/26 08:27:01;;;;;;;77.90;28.80;;;23.40;36.40;;;;;;6163207;28;87842;-48
2020/12/26 08:30:01;;;;;;;83.75;29.42;;;23.40;36.50;;;;;;6144433;28;90571;-44
2020/12/26 08:33:02;;;;;;;75.38;25.63;;;23.40;37.20;;;;;;6145354;28;83115;-44
2020/12/26 08:36:02;;;;;;;73.50;25.25;;;23.40;37.10;;;;;;6143653;28;84265;-43
2020/12/26 08:39:03;;;;;;;64.78;26.08;;;23.40;36.90;;;;;;6173471;28;84322;-44
2020/12/26 08:42:03;;;;;;;66.65;23.67;;;23.40;36.80;;;;;;6174070;28;83768;-43
2020/12/26 08:45:04;;;;;;;49.78;21.35;;;23.40;36.60;;;;;;6166718;28;84107;-43
2020/12/26 08:48:04;;;;;;;45.40;19.48;;;23.30;36.20;;;;;;6167271;28;84928;-43
2020/12/26 08:51:05;;;;;;;47.53;18.05;;;23.40;35.90;;;;;;6163765;28;83791;-43
2020/12/26 08:54:06;;;;;;;45.65;17.55;;;23.30;35.60;;;;;;6169463;27;84121;-43
2020/12/26 08:57:07;;;;;;;42.55;17.67;;;23.40;35.90;;;;;;6168843;28;95270;-43
2020/12/26 09:00:07;;;;;;;47.47;16.77;;;23.40;35.90;;;;;;6173985;27;83386;-43
2020/12/26 09:03:08;;;;;;;35.83;14.05;;;23.40;36.00;;;;;;6178180;28;83212;-43
2020/12/26 09:06:08;;;;;;;38.20;16.02;;;23.40;35.90;;;;;;6177673;27;83476;-44
2020/12/26 09:09:09;;;;;;;45.75;15.15;;;23.30;35.80;;;;;;6174794;28;82950;-43
2020/12/26 09:12:09;;;;;;;33.20;13.82;;;23.40;36.00;;;;;;6173846;27;83490;-43
2020/12/26 09:15:09;;;;;;;28.95;12.98;;;23.40;35.60;;;;;;6168463;28;83581;-43
2020/12/26 09:18:10;;;;;;;28.05;12.60;;;23.30;35.70;;;;;;6173565;27;83426;-43
2020/12/26 09:21:10;;;;;;;29.33;13.02;;;23.40;35.20;;;;;;6178051;28;83368;-43
2020/12/26 09:24:11;;;;;;;31.20;12.88;;;23.30;35.10;;;;;;6166013;28;83250;-43
2020/12/26 09:27:11;;;;;;;29.08;12.57;;;23.30;35.10;;;;;;6165640;28;83335;-43
2020/12/26 09:30:12;;;;;;;25.92;10.38;;;23.30;35.40;;;;;;6177802;28;83437;-43
2020/12/26 09:33:12;;;;;;;22.92;11.43;;;23.30;35.40;;;;;;6178226;28;83290;-43
2020/12/26 09:36:13;;;;;;;23.95;10.57;;;23.30;35.50;;;;;;6165281;27;83747;-43
2020/12/26 09:39:14;;;;;;;26.92;11.07;;;23.30;35.40;;;;;;6166585;28;82971;-43
2020/12/26 09:42:14;;;;;;;24.13;10.35;;;23.40;35.50;;;;;;6178408;28;83790;-43
2020/12/26 09:45:15;;;;;;;24.15;9.20;;;23.40;35.40;;;;;;6174331;28;83338;-43
2020/12/26 09:48:15;;;;;;;24.95;10.30;;;23.40;35.50;;;;;;6171808;28;83521;-43
2020/12/26 09:51:16;;;;;;;21.85;10.35;;;23.30;35.40;;;;;;6147300;28;83358;-43
2020/12/26 09:54:16;;;;;;;19.50;9.32;;;23.40;35.20;;;;;;6163936;28;83818;-43
2020/12/26 09:57:17;;;;;;;22.17;8.75;;;23.20;33.60;;;;;;6147513;28;82997;-43
2020/12/26 10:00:17;;;;;;;20.70;8.73;;;23.20;33.70;;;;;;6169167;28;81035;-43
2020/12/26 10:03:18;;;;;;;20.00;8.65;;;23.20;34.10;;;;;;6179058;28;80924;-43
2020/12/26 10:06:19;;;;;;;17.65;8.07;;;23.20;34.10;;;;;;6179472;28;80957;-43
2020/12/26 10:09:19;;;;;;;19.55;9.40;;;23.20;34.70;;;;;;6181322;28;82533;-43
2020/12/26 10:12:20;;;;;;;15.13;7.32;;;23.30;34.70;;;;;;6178900;28;83789;-44
2020/12/26 10:15:20;;;;;;;16.48;8.23;;;23.30;35.20;;;;;;6179743;28;80147;-43
2020/12/26 10:18:21;;;;;;;16.73;7.80;;;23.30;35.10;;;;;;6180284;27;80222;-44
2020/12/26 10:21:21;;;;;;;18.67;7.90;;;23.30;35.10;;;;;;6168408;28;80649;-43
2020/12/26 10:24:22;;;;;;;14.60;7.88;;;23.30;35.20;;;;;;6178980;27;80605;-45
2020/12/26 10:27:22;;;;;;;13.50;7.00;;;23.30;35.00;;;;;;6179256;28;80761;-43
2020/12/26 10:30:23;;;;;;;17.08;8.23;;;23.30;35.20;;;;;;6178002;28;80618;-44
2020/12/26 10:33:24;;;;;;;16.15;7.72;;;23.30;35.60;;;;;;6179270;28;81026;-44
2020/12/26 10:36:24;;;;;;;14.40;7.03;;;23.40;35.80;;;;;;6178955;28;82316;-43
2020/12/26 10:39:25;;;;;;;13.05;7.03;;;23.50;36.80;;;;;;6167680;28;81054;-44
2020/12/26 10:42:25;;;;;;;14.85;7.68;;;23.60;38.00;;;;;;6170313;28;80341;-43
2020/12/26 10:45:26;;;;;;;13.07;6.93;;;23.70;40.10;;;;;;6175676;28;80294;-43
2020/12/26 10:48:26;;;;;;;21.42;6.97;;;23.70;39.90;;;;;;6169739;28;80835;-43
2020/12/26 10:51:27;;;;;;;10.30;6.22;;;23.80;41.10;;;;;;6169798;28;80687;-43
2020/12/26 10:54:27;;;;;;;11.77;6.28;;;23.80;39.20;;;;;;6169357;28;80808;-43
2020/12/26 10:57:28;;;;;;;10.05;5.32;;;23.90;38.50;;;;;;6167422;28;80124;-43
2020/12/26 11:00:28;;;;;;;16.30;6.55;;;23.90;38.00;;;;;;6168782;28;80863;-43
2020/12/26 11:03:29;;;;;;;9.20;4.88;;;23.90;38.00;;;;;;6169238;28;82675;-43
2020/12/26 11:06:29;;;;;;;10.63;5.22;;;23.90;37.30;;;;;;6170648;28;80691;-43
2020/12/26 11:09:30;;;;;;;10.35;5.15;;;23.90;37.00;;;;;;6175191;28;80567;-43
2020/12/26 11:12:30;;;;;;;9.30;5.22;;;23.90;36.60;;;;;;6177013;28;81349;-43
2020/12/26 11:15:31;;;;;;;11.50;5.88;;;24.00;36.50;;;;;;6175287;28;81283;-43
2020/12/26 11:18:31;;;;;;;9.48;4.60;;;23.90;36.40;;;;;;6165458;28;80620;-43
2020/12/26 11:21:32;;;;;;;10.23;5.07;;;24.00;36.10;;;;;;6155089;28;81564;-43
2020/12/26 11:24:32;;;;;;;12.98;5.35;;;24.00;35.60;;;;;;6151034;28;81620;-44
2020/12/26 11:27:33;;;;;;;16.52;5.60;;;24.00;36.10;;;;;;6179563;28;80761;-44
2020/12/26 11:30:34;;;;;;;8.70;4.70;;;24.00;36.20;;;;;;6174468;28;81504;-43
2020/12/26 11:33:34;;;;;;;11.43;5.93;;;24.10;36.40;;;;;;6178187;28;81888;-44
2020/12/26 11:36:35;;;;;;;7.68;4.20;;;24.00;36.50;;;;;;6178756;28;80568;-43
2020/12/26 11:39:35;;;;;;;10.50;4.70;;;24.00;36.30;;;;;;6167226;28;80536;-43
2020/12/26 11:42:39;;;;;;;11.73;4.55;;;24.10;35.90;;;;;;6172297;27;81495;-43
2020/12/26 11:45:39;;;;;;;9.48;4.47;;;24.10;36.40;;;;;;6172701;28;80633;-43
2020/12/26 11:48:40;;;;;;;8.80;4.22;;;24.00;36.50;;;;;;6164880;28;83682;-43
2020/12/26 11:51:40;;;;;;;12.15;4.75;;;24.00;36.30;;;;;;6166129;28;81457;-43
2020/12/26 11:54:41;;;;;;;7.82;3.95;;;24.10;36.60;;;;;;6164524;28;81516;-43
2020/12/26 11:57:42;;;;;;;10.13;4.68;;;24.00;36.90;;;;;;6167259;28;80651;-45
2020/12/26 12:00:42;;;;;;;10.57;4.50;;;24.00;37.00;;;;;;6167451;28;81722;-43
2020/12/26 12:03:43;;;;;;;9.80;4.05;;;24.00;36.90;;;;;;6165891;28;82640;-43
2020/12/26 12:06:43;;;;;;;8.05;4.40;;;24.00;36.60;;;;;;6165966;28;80968;-43
2020/12/26 12:09:44;;;;;;;8.27;4.43;;;23.90;36.50;;;;;;6157356;28;81787;-44
2020/12/26 12:12:44;;;;;;;9.57;4.45;;;23.90;36.40;;;;;;6154269;28;80534;-45
2020/12/26 12:15:45;;;;;;;9.02;4.30;;;23.80;36.10;;;;;;6178992;28;81280;-45
2020/12/26 12:18:45;;;;;;;11.65;4.63;;;23.90;35.90;;;;;;6173037;28;80801;-43
2020/12/26 12:22:05;;;;;;;8.55;4.32;;;23.90;37.20;;;;;;6172901;28;81463;-44
2020/12/26 12:25:05;;;;;;;12.20;4.30;;;23.90;36.00;;;;;;6173421;28;81508;-44
2020/12/26 12:28:24;;;;;;;9.75;4.60;;;23.90;36.30;;;;;;6162586;28;80936;-45
2020/12/26 12:31:25;;;;;;;10.05;3.72;;;23.90;36.30;;;;;;6173403;28;80765;-46
2020/12/26 12:34:25;;;;;;;6.07;3.47;;;23.80;36.80;;;;;;6140645;28;82245;-45
2020/12/26 12:37:26;;;;;;;9.90;3.90;;;23.80;35.70;;;;;;6156939;28;80578;-45
2020/12/26 12:40:26;;;;;;;10.07;3.70;;;23.80;36.10;;;;;;6172091;28;81029;-45
2020/12/26 12:43:27;;;;;;;7.80;4.30;;;23.90;36.00;;;;;;6171901;28;81862;-45
2020/12/26 12:46:27;;;;;;;8.32;3.95;;;23.80;36.00;;;;;;6174188;28;81075;-45
2020/12/26 12:49:28;;;;;;;8.32;4.13;;;23.80;35.60;;;;;;6172253;28;81485;-45
2020/12/26 12:52:28;;;;;;;8.70;4.53;;;23.70;34.90;;;;;;6173708;28;80848;-45
2020/12/26 12:55:29;;;;;;;8.23;3.90;;;23.70;35.10;;;;;;6177206;28;82708;-44
2020/12/26 12:58:29;;;;;;;7.30;4.38;;;23.70;35.00;;;;;;6171926;28;81167;-43
2020/12/26 13:01:30;;;;;;;7.32;4.00;;;23.70;35.10;;;;;;6175181;28;81703;-43
2020/12/26 13:04:30;;;;;;;8.02;4.32;;;23.60;34.20;;;;;;6165277;28;81389;-44
2020/12/26 13:07:31;;;;;;;8.82;4.65;;;23.60;34.00;;;;;;6159419;28;80792;-44
2020/12/26 13:10:31;;;;;;;9.10;4.75;;;23.60;33.90;;;;;;6172281;28;81303;-43
2020/12/26 13:13:32;;;;;;;11.75;5.28;;;23.50;34.00;;;;;;6169322;28;83426;-44
2020/12/26 13:16:32;;;;;;;8.60;4.38;;;23.50;33.90;;;;;;6166334;28;81776;-44
2020/12/26 13:19:33;;;;;;;8.32;4.20;;;23.50;33.80;;;;;;6166171;28;82868;-44
2020/12/26 13:22:33;;;;;;;9.32;4.20;;;23.50;33.80;;;;;;6166666;28;80823;-44
2020/12/26 13:25:34;;;;;;;7.95;4.55;;;23.40;33.40;;;;;;6169387;28;81294;-44
2020/12/26 13:28:34;;;;;;;9.20;4.68;;;23.40;33.50;;;;;;6174403;28;83234;-43
2020/12/26 13:31:35;;;;;;;9.90;4.78;;;23.40;33.50;;;;;;6174866;28;81755;-44
2020/12/26 13:34:36;;;;;;;11.68;4.90;;;23.40;33.30;;;;;;6169653;28;82697;-44
2020/12/26 13:37:36;;;;;;;7.75;4.72;;;23.40;33.10;;;;;;6170135;27;84182;-44
2020/12/26 13:40:37;;;;;;;10.77;5.20;;;23.30;33.00;;;;;;6173116;28;80703;-44
2020/12/26 13:43:37;;;;;;;12.07;5.15;;;23.30;33.20;;;;;;6173121;28;81374;-44
2020/12/26 13:46:38;;;;;;;9.07;4.13;;;23.30;33.10;;;;;;6177043;28;80594;-44
2020/12/26 13:49:38;;;;;;;9.48;4.63;;;23.30;33.10;;;;;;6176401;28;82555;-44
2020/12/26 13:52:38;;;;;;;10.10;4.63;;;23.20;33.10;;;;;;6178916;28;80366;-44
2020/12/26 13:55:39;;;;;;;11.82;5.00;;;23.30;33.00;;;;;;6177963;28;80710;-45
2020/12/26 13:58:40;;;;;;;10.32;5.05;;;23.20;33.30;;;;;;6174015;28;80902;-44
2020/12/26 14:01:40;;;;;;;12.15;5.38;;;23.30;33.40;;;;;;6174332;28;81458;-44
2020/12/26 14:04:41;;;;;;;10.75;5.38;;;23.20;33.40;;;;;;6177355;28;81042;-45
2020/12/26 14:07:41;;;;;;;11.85;5.28;;;23.20;33.60;;;;;;6177835;28;81820;-45
2020/12/26 14:10:41;;;;;;;10.90;5.40;;;23.30;33.80;;;;;;6175787;28;81114;-46
2020/12/26 14:13:42;;;;;;;11.38;5.72;;;23.30;33.80;;;;;;6164359;28;81676;-44
2020/12/26 14:16:42;;;;;;;10.63;4.97;;;23.30;33.90;;;;;;6172051;28;80884;-45
2020/12/26 14:19:43;;;;;;;13.20;5.47;;;23.30;34.60;;;;;;6177072;28;80653;-45
2020/12/26 14:22:43;;;;;;;12.02;5.70;;;23.30;35.00;;;;;;6177529;27;81234;-45
2020/12/26 14:25:46;;;;;;;14.50;5.30;;;23.30;35.80;;;;;;6176191;28;80521;-45
2020/12/26 14:28:46;;;;;;;12.45;5.35;;;23.40;37.70;;;;;;6175316;28;80987;-44
2020/12/26 14:31:47;;;;;;;13.57;6.65;;;23.50;38.40;;;;;;6175999;28;82088;-45
2020/12/26 14:34:48;;;;;;;15.40;7.70;;;23.50;39.20;;;;;;6169685;28;80430;-44
2020/12/26 14:37:49;;;;;;;14.88;6.88;;;23.50;39.00;;;;;;6174533;28;81420;-45
2020/12/26 14:40:49;;;;;;;13.32;6.35;;;23.50;37.70;;;;;;6179804;28;80611;-44
2020/12/26 14:43:50;;;;;;;14.98;7.35;;;23.50;38.00;;;;;;6172410;28;80721;-45
2020/12/26 14:46:51;;;;;;;14.55;6.88;;;23.50;38.30;;;;;;6175592;28;80402;-44
2020/12/26 14:49:51;;;;;;;12.73;6.68;;;23.50;37.80;;;;;;6176678;28;80673;-45
2020/12/26 14:52:52;;;;;;;16.63;7.70;;;23.50;37.60;;;;;;6171478;28;80407;-45
2020/12/26 14:55:52;;;;;;;13.45;7.05;;;23.50;37.30;;;;;;6168813;28;81515;-45
2020/12/26 14:58:53;;;;;;;19.13;7.50;;;23.60;36.70;;;;;;6172186;28;81489;-44
2020/12/26 15:01:54;;;;;;;18.02;8.20;;;23.50;36.40;;;;;;6168451;28;81375;-44
2020/12/26 15:04:54;;;;;;;16.98;7.75;;;23.50;36.00;;;;;;6177928;28;81906;-44
2020/12/26 15:07:55;;;;;;;19.08;7.55;;;23.50;36.40;;;;;;6159633;28;81094;-43
2020/12/26 15:10:55;;;;;;;17.85;7.22;;;23.60;36.10;;;;;;6168740;28;80732;-42
2020/12/26 15:13:56;;;;;;;19.23;8.27;;;23.60;35.70;;;;;;6168217;28;82238;-42
2020/12/26 15:16:57;;;;;;;24.23;8.27;;;23.60;36.00;;;;;;6179629;28;80564;-42
2020/12/26 15:19:57;;;;;;;21.70;8.40;;;23.60;35.90;;;;;;6173328;27;81772;-43
2020/12/26 15:22:58;;;;;;;17.88;8.30;;;23.70;35.60;;;;;;6170360;28;81051;-42
2020/12/26 15:25:58;;;;;;;19.52;7.78;;;23.60;35.40;;;;;;6176190;27;80728;-52
2020/12/26 15:28:59;;;;;;;19.55;8.88;;;23.30;35.10;;;;;;6174552;28;81642;-49
2020/12/26 15:31:59;;;;;;;17.77;8.30;;;23.50;35.00;;;;;;6174672;27;80844;-51